Time;durP1;ratioP1;P1;durP2;ratioP2;P2;SDS_P1;SDS_P2;PMS_P1;PMS_P2;Temp;Humidity;BMP_temperature;BMP_pressure;BME280_temperature;BME280_humidity;BME280_pressure;Samples;Min_cycle;Max_cycle;Signal;HPM_P1;HPM_P2
2021/06/23 00:01:23;;;;;;;;;18.67;17.00;;;;;32.47;39.27;100744.38;144169;572;132008;-79
2021/06/23 00:03:53;;;;;;;;;19.00;18.33;;;;;32.46;39.24;100745.53;144146;594;132909;-78
2021/06/23 00:06:23;;;;;;;;;21.00;20.00;;;;;32.49;39.37;100750.44;144174;654;132008;-81
2021/06/23 00:08:53;;;;;;;;;24.67;22.67;;;;;32.50;39.52;100746.50;144149;633;132907;-82
2021/06/23 00:11:23;;;;;;;;;22.33;21.00;;;;;32.50;39.52;100746.50;144170;594;132008;-85
2021/06/23 00:13:53;;;;;;;;;21.33;20.67;;;;;32.52;39.77;100744.16;144158;599;132011;-83
2021/06/23 00:16:23;;;;;;;;;19.33;19.00;;;;;32.50;39.38;100746.50;144163;566;132008;-75
2021/06/23 00:18:54;;;;;;;;;21.67;18.33;;;;;32.53;39.15;100739.41;144152;592;132010;-78
2021/06/23 00:21:24;;;;;;;;;19.67;19.67;;;;;32.53;39.06;100739.41;144154;570;132010;-76
2021/06/23 00:23:54;;;;;;;;;22.00;21.00;;;;;32.55;39.19;100737.09;144147;665;132010;-73
2021/06/23 00:26:24;;;;;;;;;20.67;20.33;;;;;32.53;38.99;100729.03;144165;590;132006;-71
2021/06/23 00:28:54;;;;;;;;;24.67;22.67;;;;;32.51;38.70;100739.72;144149;613;132907;-76
2021/06/23 00:31:24;;;;;;;;;19.00;18.33;;;;;32.47;38.78;100730.38;144171;592;131020;-74
2021/06/23 00:33:56;;;;;;;;;23.00;21.33;;;;;32.49;38.26;100732.81;144155;569;132008;-77
2021/06/23 00:36:26;;;;;;;;;22.33;22.33;;;;;32.42;38.52;100728.59;144168;589;132008;-78
2021/06/23 00:38:56;;;;;;;;;23.00;20.33;;;;;32.39;38.33;100734.03;144163;571;132016;-77
2021/06/23 00:41:26;;;;;;;;;21.67;19.33;;;;;32.40;38.52;100735.66;144168;598;132008;-74
2021/06/23 00:43:57;;;;;;;;;19.67;19.33;;;;;32.38;38.63;100733.22;144146;573;132012;-74
2021/06/23 00:46:27;;;;;;;;;25.00;24.67;;;;;32.32;38.01;100729.75;144153;649;132008;-74
2021/06/23 00:48:58;;;;;;;;;18.00;18.00;;;;;32.32;38.42;100735.34;144152;623;132018;-74
2021/06/23 00:51:28;;;;;;;;;16.33;16.00;;;;;32.27;37.79;100743.91;144169;564;131021;-74
2021/06/23 00:53:59;;;;;;;;;22.67;20.00;;;;;32.14;38.72;100742.13;144155;580;131016;-75
2021/06/23 00:56:33;;;;;;;;;19.67;17.67;;;;;32.05;38.69;100734.59;144173;625;132008;-74
2021/06/23 00:59:05;;;;;;;;;20.67;18.00;;;;;32.01;38.63;100736.44;144143;597;132021;-73
2021/06/23 01:01:39;;;;;;;;;20.00;18.67;;;;;32.02;38.68;100754.84;144169;570;132010;-73
2021/06/23 01:04:10;;;;;;;;;17.67;16.67;;;;;32.05;38.90;100745.78;144163;584;132010;-73
2021/06/23 01:06:41;;;;;;;;;17.00;16.00;;;;;32.07;38.77;100739.03;144173;575;132008;-73
2021/06/23 01:09:11;;;;;;;;;21.67;20.00;;;;;32.02;38.05;100743.66;144153;569;132010;-72
2021/06/23 01:11:54;;;;;;;;;20.33;17.33;;;;;31.92;38.03;100732.81;144149;623;132010;-73
2021/06/23 01:14:26;;;;;;;;;14.33;14.33;;;;;31.89;38.78;100739.91;144153;632;131907;-73
2021/06/23 01:16:56;;;;;;;;;17.33;15.33;;;;;31.91;38.03;100736.78;144167;587;132006;-77
2021/06/23 01:19:31;;;;;;;;;15.33;14.67;;;;;31.95;38.49;100736.94;144145;569;132011;-73
2021/06/23 01:22:02;;;;;;;;;18.33;18.00;;;;;31.94;37.93;100740.91;144169;611;132010;-75
2021/06/23 01:24:32;;;;;;;;;18.33;17.33;;;;;31.87;37.68;100736.62;144147;581;132012;-74
2021/06/23 01:27:02;;;;;;;;;20.00;19.67;;;;;31.86;37.63;100739.75;144170;578;132010;-74
2021/06/23 01:29:32;;;;;;;;;18.33;16.33;;;;;31.80;37.66;100741.06;144161;577;132010;-74
2021/06/23 01:32:03;;;;;;;;;19.67;17.33;;;;;31.73;38.35;100747.12;144169;563;131020;-75
2021/06/23 01:34:33;;;;;;;;;17.33;16.00;;;;;31.66;37.91;100738.44;144149;575;132020;-74
2021/06/23 01:37:04;;;;;;;;;18.33;17.67;;;;;31.61;38.88;100739.44;144156;597;131021;-74
2021/06/23 01:39:34;;;;;;;;;19.33;19.33;;;;;31.61;38.68;100745.00;144145;572;132010;-75
2021/06/23 01:42:05;;;;;;;;;14.33;13.67;;;;;31.63;39.07;100743.53;144165;577;132010;-74
2021/06/23 01:44:35;;;;;;;;;17.33;16.00;;;;;31.63;38.75;100742.72;144149;586;132012;-74
2021/06/23 01:47:05;;;;;;;;;23.67;22.00;;;;;31.65;39.10;100740.41;144170;576;132010;-72
2021/06/23 01:49:35;;;;;;;;;18.33;18.00;;;;;31.66;39.39;100747.62;144144;623;132907;-71
2021/06/23 01:52:06;;;;;;;;;20.33;18.00;;;;;31.66;39.73;100744.84;144166;564;132010;-71
2021/06/23 01:54:40;;;;;;;;;19.00;19.00;;;;;31.65;39.32;100746.00;144162;580;132010;-74
2021/06/23 01:57:12;;;;;;;;;22.67;18.67;;;;;31.60;40.06;100740.56;144173;587;131021;-72
2021/06/23 01:59:43;;;;;;;;;19.00;18.00;;;;;31.55;39.08;100743.53;144154;575;131907;-70
2021/06/23 02:02:27;;;;;;;;;17.67;16.33;;;;;31.53;38.70;100745.81;144154;608;131020;-70
2021/06/23 02:05:12;;;;;;;;;18.33;18.33;;;;;31.52;38.73;100733.84;144147;570;132017;-72
2021/06/23 02:08:31;;;;;;;;;19.00;17.33;;;;;31.49;38.49;100742.88;144169;599;132010;-73
2021/06/23 02:11:41;;;;;;;;;19.67;17.00;;;;;31.47;39.19;100746.00;144146;569;132012;-74
2021/06/23 02:14:37;;;;;;;;;23.00;18.33;;;;;31.42;38.20;100748.97;144165;686;132008;-71
2021/06/23 02:17:10;;;;;;;;;18.00;15.67;;;;;31.37;38.96;100749.13;144145;580;132012;-73
2021/06/23 02:19:42;;;;;;;;;12.00;10.33;;;;;31.29;39.47;100749.94;144170;583;132008;-78
2021/06/23 02:22:23;;;;;;;;;21.33;20.00;;;;;31.19;40.12;100751.87;144168;570;132906;-73
2021/06/23 02:25:03;;;;;;;;;24.67;23.67;;;;;31.14;40.36;100754.00;144166;636;132010;-73
2021/06/23 02:27:34;;;;;;;;;19.00;18.00;;;;;31.09;40.17;100751.38;144145;579;132010;-78
2021/06/23 02:30:05;;;;;;;;;19.33;18.33;;;;;31.08;39.83;100753.31;144150;592;132008;-74
2021/06/23 02:32:36;;;;;;;;;20.67;19.00;;;;;31.05;40.01;100752.03;144149;576;132010;-74
2021/06/23 02:35:08;;;;;;;;;17.33;14.33;;;;;31.00;39.83;100754.16;144166;608;132010;-78
2021/06/23 02:37:39;;;;;;;;;56.25;46.75;;;;;31.02;39.61;100751.84;144146;596;132906;-79
2021/06/23 02:40:10;;;;;;;;;24.33;23.00;;;;;31.03;39.25;100756.28;144171;650;131020;-80
2021/06/23 02:42:40;;;;;;;;;22.67;20.33;;;;;30.99;38.82;100746.91;144150;604;132011;-81
2021/06/23 02:45:12;;;;;;;;;18.33;16.33;;;;;30.99;38.76;100758.09;144169;575;132020;-82
2021/06/23 02:47:43;;;;;;;;;22.33;19.00;;;;;31.08;38.70;100758.91;144165;569;132010;-78
2021/06/23 02:50:13;;;;;;;;;21.67;20.00;;;;;31.06;39.03;100758.41;144168;604;132011;-80
2021/06/23 02:52:44;;;;;;;;;15.00;15.00;;;;;31.06;38.80;100773.22;144152;619;132906;-81
2021/06/23 02:55:19;;;;;;;;;18.00;16.67;;;;;31.07;38.59;100768.44;144149;589;132010;-81
2021/06/23 02:57:52;;;;;;;;;18.00;17.33;;;;;31.07;39.16;100771.22;144152;640;132907;-81
2021/06/23 03:00:23;;;;;;;;;26.67;23.67;;;;;31.07;39.89;100782.41;144169;571;131022;-81
2021/06/23 03:02:53;;;;;;;;;22.00;22.00;;;;;31.02;41.40;100786.16;144151;609;132010;-81
2021/06/23 03:05:23;;;;;;;;;18.00;18.00;;;;;31.06;40.89;100781.59;144169;592;131999;-81
2021/06/23 03:07:53;;;;;;;;;23.67;23.00;;;;;31.08;41.83;100789.63;144149;586;131906;-80
2021/06/23 03:10:23;;;;;;;;;17.00;17.00;;;;;31.10;42.53;100798.50;144166;575;132010;-80
2021/06/23 03:12:53;;;;;;;;;21.67;20.33;;;;;31.13;42.45;100802.63;144160;582;132012;-81
2021/06/23 03:15:24;;;;;;;;;18.00;17.67;;;;;31.14;42.82;100799.53;144167;589;132010;-79
2021/06/23 03:17:54;;;;;;;;;24.67;22.00;;;;;31.14;43.77;100807.91;144150;578;132010;-74
2021/06/23 03:20:24;;;;;;;;;21.00;20.33;;;;;31.20;43.94;100806.59;144146;574;132010;-78
2021/06/23 03:22:54;;;;;;;;;21.67;20.33;;;;;31.24;43.84;100809.59;144147;565;132020;-75
2021/06/23 03:25:25;;;;;;;;;23.00;22.00;;;;;31.31;44.02;100814.69;144167;615;132010;-75
2021/06/23 03:27:57;;;;;;;;;26.00;26.00;;;;;31.33;44.49;100809.59;144146;646;132012;-74
2021/06/23 03:30:28;;;;;;;;;21.00;21.00;;;;;31.33;44.42;100816.03;144163;576;132010;-75
2021/06/23 03:32:58;;;;;;;;;22.67;21.33;;;;;31.33;43.95;100809.59;144146;565;132020;-74
2021/06/23 03:35:29;;;;;;;;;16.00;16.00;;;;;31.35;42.47;100818.47;144167;617;132010;-75
2021/06/23 03:37:59;;;;;;;;;15.33;12.67;;;;;31.40;42.21;100821.09;144159;638;132010;-75
2021/06/23 03:40:29;;;;;;;;;18.00;16.00;;;;;31.46;42.33;100828.19;144170;608;132010;-75
2021/06/23 03:43:00;;;;;;;;;11.67;11.00;;;;;31.52;41.46;100831.66;144153;601;132010;-75
2021/06/23 03:45:30;;;;;;;;;17.00;16.00;;;;;31.58;40.88;100830.34;144159;577;132008;-75
2021/06/23 03:48:00;;;;;;;;;17.33;16.00;;;;;31.64;41.00;100831.00;144151;582;132018;-75
2021/06/23 03:50:31;;;;;;;;;19.00;18.00;;;;;31.69;41.04;100830.81;144175;617;131020;-75
2021/06/23 03:53:02;;;;;;;;;18.33;18.33;;;;;31.73;41.22;100831.84;144148;656;132906;-78
2021/06/23 03:55:33;;;;;;;;;19.67;18.67;;;;;31.70;41.50;100834.47;144166;571;132011;-77
2021/06/23 03:58:03;;;;;;;;;16.33;13.67;;;;;31.73;41.99;100839.38;144154;564;131907;-77
2021/06/23 04:00:34;;;;;;;;;16.67;15.33;;;;;31.77;41.95;100844.00;144170;603;132006;-77
2021/06/23 04:03:04;;;;;;;;;19.67;17.67;;;;;31.81;42.98;100838.62;144158;574;133017;-78
2021/06/23 04:05:35;;;;;;;;;19.00;18.33;;;;;31.87;43.38;100836.47;144173;590;131021;-75
2021/06/23 04:08:05;;;;;;;;;19.67;18.33;;;;;31.88;43.19;100832.53;144152;620;132034;-81
2021/06/23 04:10:35;;;;;;;;;22.67;21.33;;;;;31.93;42.73;100832.34;144158;619;131020;-82
2021/06/23 04:13:05;;;;;;;;;20.67;20.33;;;;;32.00;42.62;100835.47;144152;614;132010;-83
2021/06/23 04:15:35;;;;;;;;;17.00;16.00;;;;;32.12;43.02;100842.34;144167;593;132008;-83
2021/06/23 04:18:05;;;;;;;;;19.33;18.33;;;;;32.24;42.85;100842.50;144152;578;132010;-77
2021/06/23 04:20:36;;;;;;;;;20.33;17.67;;;;;32.38;42.43;100833.13;144167;578;132010;-73
2021/06/23 04:23:06;;;;;;;;;15.00;13.67;;;;;32.47;42.66;100836.75;144149;577;132907;-72
2021/06/23 04:25:36;;;;;;;;;18.33;18.33;;;;;32.61;42.56;100839.31;144167;579;132010;-76
2021/06/23 04:28:06;;;;;;;;;19.33;18.00;;;;;32.72;42.10;100842.56;144160;596;132010;-74
2021/06/23 04:30:37;;;;;;;;;15.00;14.33;;;;;32.88;41.47;100846.47;144170;600;132010;-74
2021/06/23 04:33:07;;;;;;;;;13.00;12.67;;;;;33.03;41.06;100844.28;144151;636;131907;-72
2021/06/23 04:35:37;;;;;;;;;18.00;18.00;;;;;33.14;40.90;100850.31;144155;569;132025;-72
2021/06/23 04:38:07;;;;;;;;;16.67;15.00;;;;;33.25;40.60;100847.94;144158;588;132020;-72
2021/06/23 04:40:37;;;;;;;;;15.00;15.00;;;;;33.33;40.15;100851.84;144171;583;131022;-77
2021/06/23 04:43:07;;;;;;;;;14.33;14.00;;;;;33.41;40.02;100857.41;144151;638;132907;-76
2021/06/23 04:45:37;;;;;;;;;17.67;16.33;;;;;33.52;39.89;100852.22;144169;601;132010;-72
2021/06/23 04:48:08;;;;;;;;;17.67;16.00;;;;;33.63;39.78;100871.47;144143;617;132010;-72
2021/06/23 04:50:39;;;;;;;;;18.00;17.33;;;;;33.72;40.08;100866.63;144175;596;132010;-73
2021/06/23 04:53:09;;;;;;;;;16.00;15.00;;;;;33.84;39.81;100865.84;144166;609;132907;-78
2021/06/23 04:55:39;;;;;;;;;21.00;20.67;;;;;33.96;40.25;100871.53;144169;610;131993;-78
2021/06/23 04:58:09;;;;;;;;;16.33;16.33;;;;;34.06;40.37;100875.09;144148;607;133021;-79
2021/06/23 05:00:39;;;;;;;;;20.33;20.00;;;;;34.15;40.57;100873.03;144157;601;132008;-73
2021/06/23 05:03:09;;;;;;;;;18.00;16.33;;;;;34.27;40.73;100884.31;144154;596;132010;-78
2021/06/23 05:05:39;;;;;;;;;19.33;18.33;;;;;34.35;40.82;100876.12;144167;601;132010;-78
2021/06/23 05:08:10;;;;;;;;;12.33;11.00;;;;;34.46;40.68;100890.56;144153;602;132014;-78
2021/06/23 05:10:40;;;;;;;;;19.00;17.00;;;;;34.45;40.71;100881.31;144167;566;132010;-74
2021/06/23 05:13:10;;;;;;;;;20.00;18.33;;;;;34.44;40.37;100890.91;144152;574;132019;-80
2021/06/23 05:15:40;;;;;;;;;19.67;16.33;;;;;34.43;40.80;100883.66;144171;582;132008;-78
2021/06/23 05:18:10;;;;;;;;;15.67;15.00;;;;;34.41;41.15;100891.63;144162;584;131907;-77
2021/06/23 05:20:41;;;;;;;;;15.67;15.67;;;;;34.49;40.54;100885.06;144169;573;132008;-77
2021/06/23 05:23:11;;;;;;;;;19.33;18.00;;;;;34.64;40.12;100894.03;144153;569;132010;-74
2021/06/23 05:25:41;;;;;;;;;17.00;16.00;;;;;34.64;40.08;100889.25;144157;638;132008;-76
2021/06/23 05:28:11;;;;;;;;;17.33;17.33;;;;;34.65;40.30;100885.25;144146;579;133016;-72
2021/06/23 05:30:42;;;;;;;;;22.33;20.33;;;;;34.67;40.58;100884.94;144171;603;132008;-77
2021/06/23 05:33:12;;;;;;;;;15.67;15.67;;;;;34.67;40.40;100882.13;144155;599;131907;-78
2021/06/23 05:35:42;;;;;;;;;18.67;16.67;;;;;34.63;40.90;100884.78;144169;650;132008;-80
2021/06/23 05:38:12;;;;;;;;;19.00;16.67;;;;;34.54;40.61;100876.47;144150;587;133010;-79
2021/06/23 05:40:42;;;;;;;;;14.67;14.33;;;;;34.39;40.94;100882.72;144175;625;132010;-77
2021/06/23 05:43:12;;;;;;;;;20.67;20.67;;;;;34.41;40.93;100881.19;144162;644;133024;-79
2021/06/23 05:45:42;;;;;;;;;20.33;19.00;;;;;34.48;40.72;100891.84;144174;644;132010;-78
2021/06/23 05:48:12;;;;;;;;;19.00;17.00;;;;;34.54;40.61;100890.50;144154;634;132008;-87
2021/06/23 05:50:44;;;;;;;;;17.00;16.67;;;;;34.64;40.52;100894.03;144153;571;131998;-79
2021/06/23 05:53:14;;;;;;;;;15.67;13.67;;;;;34.60;39.95;100893.09;144149;597;132012;-82
2021/06/23 05:55:44;;;;;;;;;16.00;15.33;;;;;34.52;39.98;100887.25;144170;669;132010;-79
2021/06/23 05:58:14;;;;;;;;;19.00;19.00;;;;;34.57;40.37;100891.78;144151;578;131905;-74
2021/06/23 06:00:44;;;;;;;;;17.33;17.00;;;;;34.64;39.94;100891.22;144167;563;132008;-74
2021/06/23 06:03:14;;;;;;;;;19.00;18.67;;;;;34.69;39.92;100897.44;144153;569;133014;-73
2021/06/23 06:05:46;;;;;;;;;17.33;16.33;;;;;34.85;39.67;100906.00;144175;571;132006;-73
2021/06/23 06:08:17;;;;;;;;;20.00;18.67;;;;;34.89;40.17;100910.94;144170;564;131907;-74
2021/06/23 06:10:47;;;;;;;;;16.00;16.00;;;;;34.92;39.99;100913.03;144171;595;132008;-74
2021/06/23 06:13:17;;;;;;;;;19.33;19.33;;;;;34.85;40.12;100911.63;144150;592;132906;-73
2021/06/23 06:15:47;;;;;;;;;16.33;15.33;;;;;34.94;39.69;100922.75;144153;602;132010;-74
2021/06/23 06:18:17;;;;;;;;;18.33;17.33;;;;;35.04;39.99;100913.09;144151;573;132020;-74
2021/06/23 06:20:47;;;;;;;;;18.00;16.67;;;;;35.13;39.48;100912.97;144165;584;132008;-72
2021/06/23 06:23:17;;;;;;;;;18.00;17.67;;;;;35.23;39.58;100920.09;144147;604;132020;-72
2021/06/23 06:25:47;;;;;;;;;15.00;14.67;;;;;35.19;39.45;100919.19;144172;599;132007;-72
2021/06/23 06:28:18;;;;;;;;;18.33;17.33;;;;;35.25;39.67;100914.97;144147;603;132010;-72
2021/06/23 06:30:48;;;;;;;;;19.67;18.67;;;;;35.37;39.69;100926.19;144168;593;132010;-72
2021/06/23 06:33:18;;;;;;;;;16.67;16.67;;;;;35.51;39.48;100925.84;144163;578;132012;-71
2021/06/23 06:35:48;;;;;;;;;14.67;14.67;;;;;35.54;39.09;100924.38;144167;572;132010;-72
2021/06/23 06:38:19;;;;;;;;;22.33;21.33;;;;;35.46;39.16;100914.84;144145;586;132907;-73
2021/06/23 06:40:49;;;;;;;;;19.00;18.00;;;;;35.51;39.05;100910.94;144158;621;131021;-72
2021/06/23 06:43:21;;;;;;;;;18.67;18.33;;;;;35.58;39.17;100918.81;144152;576;132906;-73
2021/06/23 06:45:52;;;;;;;;;19.67;18.67;;;;;35.63;38.93;100913.78;144170;600;132010;-74
2021/06/23 06:48:24;;;;;;;;;20.33;20.00;;;;;35.74;38.97;100907.66;144150;579;132907;-74
2021/06/23 06:50:54;;;;;;;;;18.33;17.33;;;;;35.81;38.67;100913.50;144174;642;131010;-74
2021/06/23 06:53:24;;;;;;;;;20.33;19.33;;;;;35.95;38.89;100907.50;144148;563;132020;-73
2021/06/23 06:55:54;;;;;;;;;15.00;13.33;;;;;36.04;38.79;100908.19;144171;564;132008;-75
2021/06/23 06:58:25;;;;;;;;;17.33;16.67;;;;;35.89;38.01;100906.94;144158;590;132012;-73
2021/06/23 07:00:55;;;;;;;;;20.00;17.00;;;;;35.79;38.38;100901.78;144168;573;132008;-74
2021/06/23 07:03:25;;;;;;;;;13.00;13.00;;;;;35.80;38.35;100903.44;144157;580;132015;-73
2021/06/23 07:05:55;;;;;;;;;17.33;15.67;;;;;35.76;38.38;100910.94;144152;564;132010;-72
2021/06/23 07:08:25;;;;;;;;;17.00;16.67;;;;;35.72;38.88;100913.66;144143;614;132906;-72
2021/06/23 07:10:55;;;;;;;;;19.33;17.00;;;;;35.69;39.08;100914.34;144167;630;132010;-75
2021/06/23 07:13:25;;;;;;;;;20.67;20.00;;;;;35.70;39.21;100919.63;144151;591;132010;-74
2021/06/23 07:15:55;;;;;;;;;19.33;18.33;;;;;35.86;39.31;100918.91;144169;591;132008;-73
2021/06/23 07:18:26;;;;;;;;;18.33;18.33;;;;;36.02;38.72;100918.16;144145;586;132010;-73
2021/06/23 07:20:56;;;;;;;;;17.00;16.33;;;;;36.12;38.45;100917.66;144169;595;132008;-73
2021/06/23 07:23:26;;;;;;;;;18.33;18.33;;;;;36.29;37.93;100919.34;144166;576;133014;-74
2021/06/23 07:25:56;;;;;;;;;18.67;17.33;;;;;36.48;37.29;100915.84;144173;572;132008;-73
2021/06/23 07:31:23;;;;;;;;;20.33;19.00;;;;;36.77;36.84;100927.91;144147;583;133008;-73
2021/06/23 07:33:59;;;;;;;;;19.33;18.33;;;;;36.69;37.25;100926.09;144154;597;132010;-73
2021/06/23 07:36:50;;;;;;;;;19.33;19.33;;;;;36.80;36.80;100929.22;144172;571;132010;-76
2021/06/23 07:39:20;;;;;;;;;19.33;18.33;;;;;36.82;36.59;100930.47;144151;565;132012;-79
2021/06/23 07:41:52;;;;;;;;;19.67;19.33;;;;;36.97;36.20;100936.47;144173;576;131021;-80
2021/06/23 07:47:17;;;;;;;;;19.00;17.33;;;;;37.12;35.73;100937.69;144174;671;131048;-80
2021/06/23 07:49:48;;;;;;;;;18.67;18.33;;;;;37.30;35.45;100932.47;144172;631;131012;-80
2021/06/23 07:52:40;;;;;;;;;22.33;20.00;;;;;37.49;35.30;100942.19;144167;631;132008;-80
2021/06/23 07:55:43;;;;;;;;;17.00;16.33;;;;;37.74;35.27;100933.50;144160;572;132907;-80
2021/06/23 08:12:17;;;;;;;;;21.67;20.33;;;;;38.55;32.72;100936.81;144156;604;131908;-80
2021/06/23 08:14:47;;;;;;;;;14.67;14.67;;;;;38.57;32.09;100937.25;144176;578;131020;-79
2021/06/23 08:17:18;;;;;;;;;12.00;10.33;;;;;38.56;31.55;100938.44;144166;589;131907;-80
2021/06/23 08:19:48;;;;;;;;;18.33;18.00;;;;;38.52;31.29;100934.75;144170;630;132010;-80
2021/06/23 08:22:18;;;;;;;;;15.33;14.67;;;;;38.43;31.44;100930.12;144152;566;132010;-80
2021/06/23 08:24:48;;;;;;;;;17.00;16.67;;;;;38.48;31.23;100929.84;144154;630;131021;-80
2021/06/23 08:27:18;;;;;;;;;17.00;16.00;;;;;38.54;31.60;100929.53;144155;589;132010;-80
2021/06/23 08:29:49;;;;;;;;;15.00;14.00;;;;;38.63;30.83;100918.78;144173;584;131020;-80
2021/06/23 08:32:19;;;;;;;;;19.67;19.00;;;;;38.71;30.49;100923.41;144152;603;132907;-80
2021/06/23 08:34:49;;;;;;;;;15.00;15.00;;;;;38.85;31.02;100925.63;144167;589;132010;-80
2021/06/23 08:37:19;;;;;;;;;17.00;15.33;;;;;38.95;30.52;100927.06;144153;595;132907;-79
2021/06/23 08:39:49;;;;;;;;;16.33;16.33;;;;;39.06;31.29;100913.91;144168;599;132008;-79
2021/06/23 08:42:23;;;;;;;;;18.33;18.33;;;;;39.05;29.81;100917.12;144167;584;133010;-79
2021/06/23 08:44:54;;;;;;;;;18.67;17.00;;;;;39.08;29.75;100918.41;144174;591;131020;-79
2021/06/23 08:47:27;;;;;;;;;15.00;14.00;;;;;39.14;27.29;100920.50;144147;730;132012;-80
2021/06/23 08:49:59;;;;;;;;;14.00;14.00;;;;;39.17;27.98;100921.75;144156;569;132010;-79
2021/06/23 08:52:30;;;;;;;;;13.33;13.33;;;;;39.14;27.29;100926.16;144154;604;132010;-81
2021/06/23 08:55:00;;;;;;;;;17.33;14.33;;;;;39.16;28.26;100925.78;144171;590;131021;-77
2021/06/23 08:57:32;;;;;;;;;17.67;16.00;;;;;39.14;28.31;100922.53;144150;638;132012;-78
2021/06/23 09:00:08;;;;;;;;;14.67;13.67;;;;;38.98;26.98;100928.31;144172;565;132010;-78
2021/06/23 09:02:39;;;;;;;;;14.00;13.67;;;;;38.89;28.03;100922.88;144150;572;132010;-77
2021/06/23 09:05:13;;;;;;;;;17.00;17.00;;;;;38.81;28.95;100932.44;144175;611;132008;-76
2021/06/23 09:07:55;;;;;;;;;21.33;20.00;;;;;38.77;28.51;100919.06;144171;610;132907;-78
2021/06/23 09:10:35;;;;;;;;;15.33;14.33;;;;;38.85;28.25;100922.00;144171;566;131026;-77
2021/06/23 09:13:15;;;;;;;;;14.00;14.00;;;;;38.95;28.43;100920.59;144152;589;132907;-81
2021/06/23 09:15:57;;;;;;;;;14.67;14.67;;;;;39.11;28.12;100917.63;144160;667;132006;-84
2021/06/23 09:18:34;;;;;;;;;15.33;13.33;;;;;39.13;27.28;100915.25;144151;566;132906;-84
2021/06/23 09:21:17;;;;;;;;;18.33;17.67;;;;;39.16;27.74;100909.66;144174;576;131010;-82
2021/06/23 09:23:56;;;;;;;;;15.67;14.67;;;;;39.09;27.55;100914.38;144151;569;131907;-83
2021/06/23 09:26:37;;;;;;;;;12.67;12.00;;;;;39.10;27.28;100907.53;144179;580;131023;-80
2021/06/23 09:29:13;;;;;;;;;17.33;14.00;;;;;39.22;27.07;100910.09;144155;597;132020;-80
2021/06/23 09:32:12;;;;;;;;;8.00;8.00;;;;;39.39;27.05;100908.78;144174;665;132010;-81
2021/06/23 09:34:47;;;;;;;;;13.33;12.33;;;;;39.57;26.58;100911.87;144165;617;131907;-80
2021/06/23 09:37:31;;;;;;;;;18.00;16.33;;;;;39.78;26.47;100916.19;144176;566;131020;-80
2021/06/23 09:40:22;;;;;;;;;16.67;16.00;;;;;39.83;26.51;100917.88;144149;677;132010;-80
2021/06/23 09:43:00;;;;;;;;;16.67;14.67;;;;;39.88;26.58;100915.56;144155;594;131020;-80
2021/06/23 09:45:31;;;;;;;;;13.33;12.67;;;;;39.97;26.83;100922.94;144153;585;132907;-80
2021/06/23 09:48:03;;;;;;;;;13.67;13.33;;;;;39.98;26.62;100918.91;144171;560;131021;-79
2021/06/23 09:50:36;;;;;;;;;13.00;11.67;;;;;39.95;26.73;100916.84;144148;620;132039;-79
2021/06/23 09:53:14;;;;;;;;;16.67;15.33;;;;;39.89;26.96;100913.56;144174;574;132010;-80
2021/06/23 09:55:48;;;;;;;;;13.67;13.67;;;;;39.95;27.14;100914.84;144153;564;132915;-80
2021/06/23 09:58:21;;;;;;;;;16.00;15.00;;;;;40.02;27.00;100908.44;144172;639;132008;-81
2021/06/23 10:01:10;;;;;;;;;13.67;12.67;;;;;40.12;27.26;100918.25;144167;588;132010;-79
2021/06/23 10:04:05;;;;;;;;;15.00;14.67;;;;;40.14;26.78;100911.03;144180;654;131020;-80
2021/06/23 10:06:46;;;;;;;;;17.33;16.33;;;;;40.28;27.33;100909.56;144149;658;132010;-80
2021/06/23 10:09:29;;;;;;;;;16.33;15.67;;;;;40.35;26.73;100914.50;144154;571;131021;-80
2021/06/23 10:12:08;;;;;;;;;15.33;14.67;;;;;40.25;27.04;100910.31;144151;574;132012;-82
2021/06/23 10:14:43;;;;;;;;;17.00;14.67;;;;;40.17;27.37;100915.06;144165;564;132011;-76
2021/06/23 10:17:13;;;;;;;;;20.00;18.00;;;;;40.08;27.60;100915.37;144148;640;132012;-79
2021/06/23 10:19:44;;;;;;;;;16.33;16.33;;;;;39.97;27.71;100918.09;144172;645;132008;-79
2021/06/23 10:22:14;;;;;;;;;10.67;10.67;;;;;39.95;27.96;100916.84;144157;576;132907;-79
2021/06/23 10:24:44;;;;;;;;;17.00;16.33;;;;;40.03;27.90;100921.41;144177;613;132008;-79
2021/06/23 10:27:16;;;;;;;;;16.33;15.33;;;;;40.17;27.63;100915.06;144162;583;132016;-79
2021/06/23 10:29:50;;;;;;;;;14.67;14.67;;;;;40.29;27.83;100908.37;144171;595;132008;-79
2021/06/23 10:32:22;;;;;;;;;11.33;11.33;;;;;40.23;27.89;100913.53;144150;570;132012;-79
2021/06/23 10:34:53;;;;;;;;;13.33;13.33;;;;;40.23;27.87;100905.03;144156;693;132019;-78
2021/06/23 10:37:25;;;;;;;;;14.67;14.33;;;;;40.26;27.75;100900.63;144155;579;132907;-78
2021/06/23 10:39:58;;;;;;;;;14.33;14.33;;;;;40.33;28.06;100895.06;144172;596;132006;-79
2021/06/23 10:42:29;;;;;;;;;14.33;14.33;;;;;40.35;27.62;100903.97;144153;577;132010;-78
2021/06/23 10:45:00;;;;;;;;;16.67;16.00;;;;;40.37;27.14;100890.22;144170;592;132008;-77
2021/06/23 10:47:39;;;;;;;;;15.00;14.33;;;;;40.38;27.69;100891.84;144147;588;132012;-78
2021/06/23 10:50:48;;;;;;;;;15.00;15.00;;;;;40.42;26.96;100889.91;144169;588;132008;-77
2021/06/23 10:53:35;;;;;;;;;15.00;15.00;;;;;40.52;27.37;100884.72;144169;574;131907;-76
2021/06/23 10:56:06;;;;;;;;;15.00;15.00;;;;;40.40;27.15;100882.97;144169;675;132008;-77
2021/06/23 10:58:36;;;;;;;;;18.33;18.33;;;;;40.36;27.11;100871.59;144149;564;132012;-77
2021/06/23 11:01:12;;;;;;;;;11.67;11.67;;;;;40.39;27.39;100875.69;144160;571;132009;-77
2021/06/23 11:04:02;;;;;;;;;14.33;13.67;;;;;40.28;27.85;100861.41;144153;569;131907;-77
2021/06/23 11:06:46;;;;;;;;;13.33;13.33;;;;;40.24;27.80;100852.84;144170;596;132008;-78
2021/06/23 11:09:25;;;;;;;;;17.00;17.00;;;;;40.28;27.74;100850.06;144154;570;132010;-77
2021/06/23 11:11:56;;;;;;;;;16.00;15.33;;;;;40.41;27.37;100851.44;144164;597;132010;-77
2021/06/23 11:14:32;;;;;;;;;17.33;16.67;;;;;40.44;27.62;100853.47;144152;585;132010;-76
2021/06/23 11:17:30;;;;;;;;;21.00;18.67;;;;;40.52;27.07;100845.03;144168;602;132008;-78
2021/06/23 11:20:01;;;;;;;;;17.33;15.33;;;;;40.64;26.84;100847.56;144166;589;132010;-76
2021/06/23 11:22:37;;;;;;;;;19.67;17.33;;;;;40.72;26.80;100837.94;144176;622;131023;-76
2021/06/23 11:25:34;;;;;;;;;14.00;13.33;;;;;40.83;26.28;100848.56;144152;578;132010;-76
2021/06/23 11:28:25;;;;;;;;;15.00;15.00;;;;;41.00;26.08;100839.38;144149;612;132010;-77
2021/06/23 11:31:08;;;;;;;;;15.00;14.33;;;;;41.09;25.81;100841.03;144150;591;132010;-78
2021/06/23 11:33:55;;;;;;;;;17.67;17.00;;;;;40.97;25.96;100843.00;144173;611;131020;-78
2021/06/23 11:36:25;;;;;;;;;17.67;15.67;;;;;40.83;26.50;100837.22;144155;571;131907;-78
2021/06/23 11:38:56;;;;;;;;;14.33;14.00;;;;;40.57;26.78;100830.53;144174;621;132008;-79
2021/06/23 11:41:26;;;;;;;;;15.67;15.67;;;;;40.57;26.27;100825.66;144152;703;132010;-79
2021/06/23 11:43:56;;;;;;;;;11.67;9.67;;;;;40.53;26.30;100829.66;144173;689;131020;-77
2021/06/23 11:46:26;;;;;;;;;14.33;13.00;;;;;40.56;26.36;100829.69;144167;632;132907;-77
2021/06/23 11:48:57;;;;;;;;;19.00;15.67;;;;;40.57;25.87;100825.66;144168;597;132010;-79